createdAt,value
2023-02-03T00:01:51.964Z,14.07
2023-02-03T00:04:19.194Z,13.07
2023-02-03T00:06:46.762Z,17.10
2023-02-03T00:09:14.620Z,8.98
2023-02-03T00:11:41.690Z,14.18
2023-02-03T00:14:08.797Z,9.05
2023-02-03T00:16:36.266Z,12.38
2023-02-03T00:19:03.714Z,15.43
2023-02-03T00:21:30.787Z,14.57
2023-02-03T00:23:57.741Z,11.85
2023-02-03T00:26:26.133Z,9.13
2023-02-03T00:28:53.094Z,10.15
2023-02-03T00:31:25.056Z,4.43
2023-02-03T00:33:57.218Z,5.15
2023-02-03T00:36:25.680Z,5.32
2023-02-03T00:38:53.067Z,3.05
2023-02-03T00:41:21.091Z,1.65
2023-02-03T00:43:51.176Z,1.02
2023-02-03T00:46:18.181Z,2.55
2023-02-03T00:48:45.151Z,1.50
2023-02-03T00:51:12.072Z,1.55
2023-02-03T00:53:38.942Z,2.35
2023-02-03T00:56:12.598Z,2.67
2023-02-03T00:58:40.657Z,1.52
2023-02-03T01:01:08.272Z,0.88
2023-02-03T01:03:35.470Z,1.30
2023-02-03T01:06:18.035Z,0.63
2023-02-03T01:08:45.284Z,2.00
2023-02-03T01:11:16.749Z,0.45
2023-02-03T01:13:44.471Z,2.78
2023-02-03T01:16:13.873Z,0.75
2023-02-03T01:18:41.450Z,0.65
2023-02-03T01:21:10.888Z,1.05
2023-02-03T01:23:38.409Z,0.45
2023-02-03T01:26:14.970Z,0.40
2023-02-03T01:28:42.721Z,1.25
2023-02-03T01:31:20.758Z,1.25
2023-02-03T01:33:48.834Z,0.30
2023-02-03T01:36:17.358Z,0.60
2023-02-03T01:38:45.283Z,3.55
2023-02-03T01:41:20.744Z,3.65
2023-02-03T01:43:53.796Z,0.50
2023-02-03T01:46:37.889Z,0.40
2023-02-03T01:49:15.982Z,1.25
2023-02-03T01:51:44.209Z,1.52
2023-02-03T01:54:22.777Z,1.40
2023-02-03T01:56:55.228Z,1.55
2023-02-03T01:59:23.476Z,1.13
2023-02-03T02:01:51.651Z,0.95
2023-02-03T02:04:18.732Z,0.65
2023-02-03T02:06:48.171Z,0.60
2023-02-03T02:09:16.049Z,0.98
2023-02-03T02:11:43.123Z,0.75
2023-02-03T02:14:10.874Z,0.32
2023-02-03T02:16:54.645Z,1.77
2023-02-03T02:20:02.648Z,0.60
2023-02-03T02:22:52.865Z,7.93
2023-02-03T02:26:05.387Z,0.30
2023-02-03T02:28:44.313Z,0.90
2023-02-03T02:31:52.085Z,0.40
2023-02-03T02:34:22.696Z,0.73
2023-02-03T02:37:17.584Z,1.17
2023-02-03T02:40:07.523Z,3.30
2023-02-03T02:42:46.912Z,0.32
2023-02-03T02:45:23.211Z,2.47
2023-02-03T02:47:53.136Z,2.90
2023-02-03T02:50:28.044Z,2.77
2023-02-03T02:52:57.457Z,1.92
2023-02-03T02:55:28.839Z,0.57
2023-02-03T02:58:00.882Z,0.63
2023-02-03T03:00:31.447Z,2.60
2023-02-03T03:03:07.072Z,2.47
2023-02-03T03:05:34.635Z,3.42
2023-02-03T03:08:05.250Z,1.42
2023-02-03T03:10:34.436Z,0.68
2023-02-03T03:13:06.197Z,0.30
2023-02-03T03:15:35.106Z,0.40
2023-02-03T03:18:28.720Z,0.43
2023-02-03T03:20:57.653Z,0.82
2023-02-03T03:23:30.558Z,0.40
2023-02-03T03:26:20.341Z,0.55
2023-02-03T03:28:54.791Z,2.83
2023-02-03T03:31:21.903Z,1.67
2023-02-03T03:33:49.454Z,0.60
2023-02-03T03:36:31.041Z,1.05
2023-02-03T03:39:12.105Z,1.88
2023-02-03T03:41:56.704Z,0.73
2023-02-03T03:44:27.419Z,1.20
2023-02-03T03:47:04.945Z,1.83
2023-02-03T03:49:34.263Z,0.45
2023-02-03T03:52:08.893Z,0.80
2023-02-03T03:54:37.862Z,1.48
2023-02-03T03:57:33.004Z,0.68
2023-02-03T04:00:02.567Z,3.15
2023-02-03T04:02:30.728Z,1.30
2023-02-03T04:05:01.289Z,8.10
2023-02-03T04:07:46.527Z,2.10
2023-02-03T04:10:20.128Z,0.30
2023-02-03T04:12:47.052Z,0.93
2023-02-03T04:15:13.978Z,1.25
2023-02-03T04:17:40.933Z,4.60
2023-02-03T04:20:08.085Z,1.02
2023-02-03T04:22:34.996Z,0.45
2023-02-03T04:25:01.929Z,0.32
2023-02-03T04:27:28.839Z,1.20
2023-02-03T04:29:55.812Z,1.77
2023-02-03T04:32:22.788Z,0.30
2023-02-03T04:34:49.766Z,1.13
2023-02-03T04:37:16.608Z,0.50
2023-02-03T04:39:43.576Z,0.60
2023-02-03T04:42:10.487Z,0.50
2023-02-03T04:44:37.397Z,0.73
2023-02-03T04:47:04.448Z,0.20
2023-02-03T04:49:31.440Z,0.93
2023-02-03T04:51:58.381Z,0.55
2023-02-03T04:54:25.404Z,0.43
2023-02-03T04:56:52.397Z,0.68
2023-02-03T04:59:19.397Z,2.50
2023-02-03T05:01:46.508Z,0.52
2023-02-03T05:04:13.510Z,0.28
2023-02-03T05:06:40.479Z,0.93
2023-02-03T05:09:07.552Z,1.05
2023-02-03T05:11:34.633Z,0.40
2023-02-03T05:14:01.687Z,2.50
2023-02-03T05:16:28.627Z,0.30
2023-02-03T05:18:55.540Z,1.35
2023-02-03T05:21:22.590Z,1.08
2023-02-03T05:23:49.481Z,3.10
2023-02-03T05:26:16.569Z,0.63
2023-02-03T05:28:43.496Z,1.83
2023-02-03T05:31:10.564Z,1.20
2023-02-03T05:33:37.485Z,0.70
2023-02-03T05:36:04.698Z,2.15
2023-02-03T05:38:31.578Z,1.27
2023-02-03T05:41:17.227Z,0.80
2023-02-03T05:43:44.112Z,1.50
2023-02-03T05:46:11.161Z,0.50
2023-02-03T05:48:38.076Z,2.42
2023-02-03T05:51:05.188Z,0.88
2023-02-03T05:53:32.078Z,1.77
2023-02-03T05:55:59.052Z,1.30
2023-02-03T05:58:25.980Z,0.80
2023-02-03T06:00:53.208Z,1.42
2023-02-03T06:03:20.217Z,2.38
2023-02-03T06:05:47.142Z,1.13
2023-02-03T06:08:14.053Z,3.08
2023-02-03T06:10:40.992Z,0.93
2023-02-03T06:13:12.296Z,2.05
2023-02-03T06:15:39.922Z,2.35
2023-02-03T06:18:07.587Z,2.05
2023-02-03T06:20:35.012Z,2.00
2023-02-03T06:23:02.079Z,3.15
2023-02-03T06:25:29.063Z,2.40
2023-02-03T06:27:56.053Z,6.22
2023-02-03T06:30:23.972Z,6.15
2023-02-03T06:32:51.272Z,4.45
2023-02-03T06:35:18.634Z,9.57
2023-02-03T06:37:45.604Z,7.95
2023-02-03T06:40:13.127Z,8.52
2023-02-03T06:42:40.168Z,6.15
2023-02-03T06:45:08.396Z,2.67
2023-02-03T06:47:35.881Z,4.57
2023-02-03T12:53:17.722Z,47.35
2023-02-03T12:55:51.185Z,7.07
2023-02-03T12:58:26.657Z,4.40
2023-02-03T13:01:02.399Z,2.78
2023-02-03T13:03:35.861Z,1.20
2023-02-03T13:06:15.241Z,2.03
2023-02-03T13:08:52.366Z,2.03
2023-02-03T13:11:34.288Z,0.30
2023-02-03T13:14:21.145Z,4.57
2023-02-03T13:16:53.747Z,6.80
2023-02-03T13:19:27.473Z,15.73
2023-02-03T13:21:54.492Z,19.10
2023-02-03T13:24:25.446Z,4.97
2023-02-03T13:27:29.729Z,27.00
2023-02-03T13:30:08.717Z,42.55
2023-02-03T13:32:59.471Z,69.53
2023-02-03T13:35:48.527Z,4.50
2023-02-03T13:38:31.203Z,12.38
2023-02-03T13:41:20.710Z,33.28
2023-02-03T13:43:51.337Z,45.95
2023-02-03T13:46:26.852Z,9.90
2023-02-03T13:48:57.291Z,44.80
2023-02-03T13:51:35.690Z,15.55
2023-02-03T13:54:08.927Z,11.10
2023-02-03T19:03:09.555Z,5.78
2023-02-03T19:05:39.803Z,8.32
2023-02-03T19:08:07.325Z,19.80
2023-02-03T19:10:36.059Z,24.67
2023-02-03T19:13:03.034Z,33.25
2023-02-03T19:15:30.334Z,27.83
2023-02-03T19:17:57.275Z,27.50
2023-02-03T19:20:24.311Z,21.30
2023-02-03T19:22:51.208Z,27.88
2023-02-03T19:25:18.263Z,31.88
2023-02-03T19:27:45.261Z,20.60
2023-02-03T19:30:12.722Z,35.10
2023-02-03T19:32:39.626Z,33.55
2023-02-03T19:35:06.900Z,28.52
2023-02-03T19:37:33.980Z,52.55
2023-02-03T19:40:00.968Z,34.97
2023-02-03T19:42:28.104Z,19.73
2023-02-03T19:44:56.612Z,31.70
2023-02-03T19:47:23.565Z,36.80
2023-02-03T19:49:50.490Z,20.20
2023-02-03T19:52:17.447Z,18.33
2023-02-03T19:54:44.385Z,19.10
2023-02-03T19:57:11.403Z,17.85
2023-02-03T19:59:38.368Z,22.88
2023-02-03T20:02:13.809Z,20.55
2023-02-03T20:04:42.178Z,14.70
2023-02-03T20:07:09.136Z,10.73
2023-02-03T20:09:36.411Z,18.20
2023-02-03T20:12:03.357Z,14.38
2023-02-03T20:14:30.325Z,18.70
2023-02-03T20:16:57.238Z,13.85
2023-02-03T20:19:24.337Z,19.60
2023-02-03T20:21:51.312Z,14.95
2023-02-03T20:24:18.479Z,30.92
2023-02-03T20:26:45.448Z,14.98
2023-02-03T20:29:12.349Z,13.52
2023-02-03T20:31:39.466Z,6.75
2023-02-03T20:34:06.463Z,9.77
2023-02-03T20:36:33.399Z,8.00
2023-02-03T20:39:00.366Z,7.70
2023-02-03T20:41:27.377Z,6.45
2023-02-03T20:43:54.308Z,8.35
2023-02-03T20:46:21.424Z,50.90
2023-02-03T20:48:48.683Z,5.05
2023-02-03T20:51:18.512Z,7.80
2023-02-03T20:53:45.516Z,9.93
2023-02-03T20:56:16.059Z,11.65
2023-02-03T20:58:44.367Z,9.20
2023-02-03T21:01:20.315Z,7.55
2023-02-03T21:04:06.466Z,9.98
2023-02-03T21:06:34.668Z,8.85
2023-02-03T21:09:19.714Z,7.18
2023-02-03T21:11:46.643Z,5.20
2023-02-03T21:14:36.100Z,13.10
2023-02-03T21:17:03.039Z,5.70
2023-02-03T21:19:34.062Z,3.50
2023-02-03T21:22:20.474Z,8.02
2023-02-03T21:24:57.139Z,8.35
2023-02-03T21:27:32.532Z,9.48
2023-02-03T21:30:01.692Z,5.28
2023-02-03T21:32:38.503Z,5.85
2023-02-03T21:35:28.815Z,4.85
2023-02-03T21:38:02.646Z,3.70
2023-02-03T21:40:32.546Z,4.38
2023-02-03T21:43:02.241Z,5.78
2023-02-03T21:45:35.540Z,3.80
2023-02-03T21:48:36.630Z,4.20
2023-02-03T21:53:39.647Z,5.90
2023-02-03T21:56:22.210Z,2.22
2023-02-03T21:58:50.903Z,5.35
2023-02-03T22:01:19.401Z,4.00
2023-02-03T22:03:50.078Z,4.47
2023-02-03T22:06:27.056Z,4.63
2023-02-03T22:08:56.605Z,5.43
2023-02-03T22:11:26.964Z,2.83
2023-02-03T22:13:54.402Z,4.38
2023-02-03T22:16:21.853Z,1.95
2023-02-03T22:18:49.964Z,5.85
2023-02-03T22:21:17.618Z,6.28
2023-02-03T22:23:44.760Z,2.10
2023-02-03T22:26:12.487Z,3.88
2023-02-03T22:28:40.325Z,4.90
2023-02-03T22:31:08.840Z,2.95
2023-02-03T22:33:35.984Z,7.15
2023-02-03T22:36:03.665Z,3.10
2023-02-03T22:38:30.717Z,4.60
2023-02-03T22:40:58.065Z,3.00
2023-02-03T22:43:25.799Z,3.42
2023-02-03T22:45:53.073Z,4.60
2023-02-03T22:48:20.484Z,3.10
2023-02-03T22:50:47.883Z,1.88
2023-02-03T22:53:14.935Z,3.00
2023-02-03T22:55:43.049Z,3.40
2023-02-03T22:58:10.059Z,3.78
2023-02-03T23:00:38.508Z,1.80
2023-02-03T23:03:06.209Z,5.22
2023-02-03T23:05:33.676Z,2.28
2023-02-03T23:08:01.161Z,2.03
2023-02-03T23:10:32.518Z,2.28
2023-02-03T23:13:00.912Z,2.58
2023-02-03T23:15:28.898Z,3.63
2023-02-03T23:17:56.251Z,3.38
2023-02-03T23:20:23.576Z,3.45
2023-02-03T23:22:56.355Z,3.63
2023-02-03T23:25:27.964Z,2.65
2023-02-03T23:28:01.639Z,3.25
2023-02-03T23:30:38.890Z,6.22
2023-02-03T23:33:12.463Z,3.08
2023-02-03T23:35:54.662Z,3.33
2023-02-03T23:38:31.027Z,3.60
2023-02-03T23:40:59.711Z,4.10
2023-02-03T23:43:33.622Z,3.20
2023-02-03T23:46:11.247Z,3.65
2023-02-03T23:48:45.128Z,6.05
2023-02-03T23:51:19.639Z,3.63
2023-02-03T23:53:49.256Z,7.60
2023-02-03T23:56:24.699Z,2.30
2023-02-03T23:58:58.392Z,2.28
